createdAt,value
2023-05-21T00:01:26.480Z,11.58
2023-05-21T00:03:54.859Z,11.70
2023-05-21T00:06:23.494Z,11.65
2023-05-21T00:08:51.976Z,11.58
2023-05-21T00:11:20.226Z,11.47
2023-05-21T00:13:48.416Z,11.44
2023-05-21T00:16:16.717Z,11.44
2023-05-21T00:18:45.591Z,11.42
2023-05-21T00:21:14.281Z,11.46
2023-05-21T00:23:42.956Z,11.48
2023-05-21T00:26:11.771Z,11.57
2023-05-21T00:28:41.148Z,11.64
2023-05-21T00:31:10.407Z,11.53
2023-05-21T00:33:38.845Z,11.50
2023-05-21T00:36:07.238Z,11.50
2023-05-21T00:38:38.240Z,11.45
2023-05-21T00:41:06.274Z,11.54
2023-05-21T00:43:34.546Z,11.67
2023-05-21T00:46:02.868Z,11.76
2023-05-21T00:48:32.489Z,11.79
2023-05-21T00:51:01.009Z,11.81
2023-05-21T00:53:30.378Z,11.84
2023-05-21T00:55:58.576Z,11.80
2023-05-21T00:58:27.363Z,11.82
2023-05-21T01:00:56.790Z,11.82
2023-05-21T01:03:26.396Z,11.87
2023-05-21T01:06:00.169Z,11.89
2023-05-21T01:08:30.020Z,11.87
2023-05-21T01:10:59.385Z,11.86
2023-05-21T01:13:28.191Z,11.88
2023-05-21T01:15:58.916Z,11.88
2023-05-21T01:18:27.560Z,11.89
2023-05-21T01:20:55.739Z,11.89
2023-05-21T01:23:24.171Z,11.84
2023-05-21T01:25:52.195Z,11.79
2023-05-21T01:28:20.828Z,11.77
2023-05-21T01:30:50.530Z,11.73
2023-05-21T01:33:22.110Z,11.76
2023-05-21T01:35:53.543Z,11.72
2023-05-21T01:38:31.565Z,11.68
2023-05-21T01:41:07.422Z,11.77
2023-05-21T01:43:39.749Z,11.87
2023-05-21T01:46:11.192Z,11.94
2023-05-21T01:48:39.706Z,11.93
2023-05-21T01:51:08.112Z,11.92
2023-05-21T01:53:39.028Z,11.87
2023-05-21T01:56:08.260Z,11.72
2023-05-21T01:58:36.378Z,11.67
2023-05-21T02:01:05.412Z,11.74
2023-05-21T02:03:34.068Z,11.80
2023-05-21T02:06:02.385Z,11.80
2023-05-21T02:08:31.420Z,11.80
2023-05-21T02:10:59.892Z,11.78
2023-05-21T02:13:29.362Z,11.82
2023-05-21T02:15:57.894Z,11.88
2023-05-21T02:18:26.645Z,11.92
2023-05-21T02:20:55.117Z,11.91
2023-05-21T02:23:23.320Z,11.98
2023-05-21T02:25:51.772Z,12.00
2023-05-21T02:28:21.543Z,11.97
2023-05-21T02:30:49.964Z,11.93
2023-05-21T02:33:20.018Z,11.86
2023-05-21T02:35:48.792Z,11.83
2023-05-21T02:38:19.608Z,11.82
2023-05-21T02:40:48.133Z,11.79
2023-05-21T02:43:16.548Z,11.78
2023-05-21T02:45:45.210Z,11.78
2023-05-21T02:48:13.368Z,11.78
2023-05-21T02:50:42.560Z,11.74
2023-05-21T02:53:11.143Z,11.74
2023-05-21T02:55:39.540Z,11.72
2023-05-21T02:58:07.990Z,11.69
2023-05-21T03:00:36.509Z,11.68
2023-05-21T03:03:05.133Z,11.63
2023-05-21T03:05:33.686Z,11.65
2023-05-21T03:08:02.122Z,11.51
2023-05-21T03:10:31.116Z,11.57
2023-05-21T03:13:00.178Z,11.54
2023-05-21T03:15:33.350Z,11.49
2023-05-21T03:18:02.070Z,11.45
2023-05-21T03:20:30.930Z,11.41
2023-05-21T03:23:00.806Z,11.40
2023-05-21T03:25:29.129Z,11.41
2023-05-21T03:27:57.770Z,11.43
2023-05-21T03:30:49.838Z,11.43
2023-05-21T03:33:51.405Z,11.45
2023-05-21T03:36:24.046Z,11.43
2023-05-21T03:38:52.368Z,11.48
2023-05-21T03:41:21.363Z,11.59
2023-05-21T03:43:52.838Z,11.64
2023-05-21T03:46:22.909Z,11.63
2023-05-21T03:49:26.937Z,11.67
2023-05-21T03:51:57.038Z,11.75
2023-05-21T03:54:25.850Z,11.86
2023-05-21T03:56:56.419Z,11.93
2023-05-21T03:59:25.603Z,11.95
2023-05-21T04:01:53.978Z,11.95
2023-05-21T04:04:23.089Z,11.98
2023-05-21T04:06:51.725Z,12.05
2023-05-21T04:09:20.184Z,12.09
2023-05-21T04:11:48.486Z,12.14
2023-05-21T04:14:17.583Z,12.19
2023-05-21T04:16:46.166Z,12.21
2023-05-21T04:19:14.210Z,12.23
2023-05-21T04:21:45.278Z,12.26
2023-05-21T04:24:14.503Z,12.33
2023-05-21T04:27:01.757Z,12.40
2023-05-21T04:29:31.859Z,12.48
2023-05-21T04:32:00.727Z,12.56
2023-05-21T04:34:30.036Z,12.68
2023-05-21T04:36:58.656Z,12.76
2023-05-21T04:39:26.993Z,12.84
2023-05-21T04:41:56.906Z,12.84
2023-05-21T04:44:26.335Z,13.01
2023-05-21T04:46:57.684Z,13.29
2023-05-21T04:49:26.039Z,13.38
2023-05-21T04:51:54.194Z,13.53
2023-05-21T04:54:23.718Z,13.71
2023-05-21T04:56:51.865Z,13.83
2023-05-21T04:59:21.410Z,13.92
2023-05-21T05:01:49.895Z,13.98
2023-05-21T05:04:18.587Z,14.06
2023-05-21T05:06:47.580Z,14.13
2023-05-21T05:09:16.715Z,14.60
2023-05-21T05:11:45.108Z,15.06
2023-05-21T05:14:13.136Z,15.07
2023-05-21T05:16:41.413Z,15.12
2023-05-21T05:19:09.845Z,15.33
2023-05-21T05:21:38.389Z,15.47
2023-05-21T05:24:06.964Z,15.58
2023-05-21T05:26:35.337Z,15.78
2023-05-21T05:29:03.634Z,15.80
2023-05-21T05:31:32.062Z,15.82
2023-05-21T05:34:00.368Z,15.84
2023-05-21T05:36:29.991Z,15.81
2023-05-21T05:38:58.433Z,15.80
2023-05-21T05:41:27.375Z,15.81
2023-05-21T05:43:57.287Z,15.88
2023-05-21T05:46:27.316Z,15.93
2023-05-21T05:48:55.883Z,15.94
2023-05-21T05:51:24.392Z,16.03
2023-05-21T05:53:52.753Z,16.18
2023-05-21T05:56:21.783Z,16.32
2023-05-21T05:58:50.074Z,16.43
2023-05-21T06:01:19.797Z,16.52
2023-05-21T06:03:48.335Z,16.54
2023-05-21T06:06:18.192Z,16.61
2023-05-21T06:08:46.812Z,16.77
2023-05-21T06:11:17.352Z,16.87
2023-05-21T06:13:46.281Z,17.01
2023-05-21T06:16:16.117Z,17.11
2023-05-21T06:18:44.584Z,17.22
2023-05-21T06:21:12.972Z,17.31
2023-05-21T06:23:41.847Z,17.44
2023-05-21T06:26:10.839Z,17.61
2023-05-21T06:28:38.993Z,17.72
2023-05-21T06:31:07.907Z,17.84
2023-05-21T06:33:37.115Z,17.98
2023-05-21T06:36:06.198Z,18.12
2023-05-21T06:38:34.992Z,18.27
2023-05-21T06:41:04.477Z,18.41
2023-05-21T06:43:50.980Z,18.56
2023-05-21T06:46:38.548Z,18.71
2023-05-21T06:49:09.344Z,18.81
2023-05-21T06:51:38.334Z,18.94
2023-05-21T06:54:06.933Z,19.02
2023-05-21T06:56:35.920Z,18.90
2023-05-21T06:59:04.321Z,18.78
2023-05-21T07:01:32.636Z,18.87
2023-05-21T07:04:01.428Z,18.97
2023-05-21T07:06:29.849Z,19.06
2023-05-21T07:08:59.105Z,19.22
2023-05-21T07:11:29.197Z,19.47
2023-05-21T07:14:00.566Z,19.96
2023-05-21T07:16:29.570Z,20.45
2023-05-21T07:18:58.469Z,20.72
2023-05-21T07:21:26.888Z,20.82
2023-05-21T07:23:55.117Z,20.79
2023-05-21T07:26:23.424Z,20.85
2023-05-21T07:28:51.916Z,20.93
2023-05-21T07:31:21.299Z,20.97
2023-05-21T07:33:51.696Z,21.10
2023-05-21T07:36:20.547Z,21.28
2023-05-21T07:38:48.955Z,21.61
2023-05-21T07:41:18.828Z,21.94
2023-05-21T07:43:47.904Z,22.20
2023-05-21T07:46:16.797Z,22.22
2023-05-21T07:48:46.756Z,22.14
2023-05-21T07:51:15.476Z,22.14
2023-05-21T07:53:44.176Z,22.20
2023-05-21T07:56:13.162Z,22.23
2023-05-21T07:58:41.447Z,22.16
2023-05-21T08:01:09.693Z,22.05
2023-05-21T08:03:38.398Z,21.94
2023-05-21T08:06:06.836Z,21.82
2023-05-21T08:08:35.180Z,21.77
2023-05-21T08:11:03.554Z,21.75
2023-05-21T08:13:32.124Z,21.94
2023-05-21T08:16:00.270Z,22.08
2023-05-21T08:18:28.866Z,22.20
2023-05-21T08:20:57.727Z,22.16
2023-05-21T08:23:27.479Z,22.16
2023-05-21T08:25:57.382Z,22.20
2023-05-21T08:28:27.633Z,22.13
2023-05-21T08:30:56.602Z,22.24
2023-05-21T08:33:26.010Z,22.26
2023-05-21T08:35:54.616Z,22.41
2023-05-21T08:38:30.090Z,22.50
2023-05-21T08:41:23.229Z,22.61
2023-05-21T08:43:57.766Z,22.66
2023-05-21T08:46:32.807Z,22.89
2023-05-21T08:49:03.374Z,23.13
2023-05-21T08:51:31.837Z,23.20
2023-05-21T08:54:01.834Z,23.41
2023-05-21T08:56:32.842Z,23.83
2023-05-21T08:59:03.121Z,23.90
2023-05-21T09:01:34.670Z,24.00
2023-05-21T09:04:20.774Z,23.95
2023-05-21T09:06:52.051Z,24.25
2023-05-21T09:09:34.618Z,24.36
2023-05-21T09:12:03.570Z,24.62
2023-05-21T09:14:32.880Z,24.73
2023-05-21T09:17:21.325Z,24.90
2023-05-21T09:20:15.335Z,24.83
2023-05-21T09:22:49.696Z,25.04
2023-05-21T09:25:21.955Z,25.05
2023-05-21T09:27:51.132Z,24.80
2023-05-21T09:30:23.603Z,24.54
2023-05-21T09:32:57.648Z,24.57
2023-05-21T09:35:26.177Z,24.11
2023-05-21T09:37:54.256Z,23.78
2023-05-21T09:40:24.675Z,23.40
2023-05-21T09:42:55.144Z,23.28
2023-05-21T09:45:26.279Z,23.39
2023-05-21T09:47:56.738Z,23.09
2023-05-21T09:50:31.765Z,23.21
2023-05-21T09:53:00.134Z,23.05
2023-05-21T09:55:29.088Z,23.08
2023-05-21T09:57:58.322Z,22.96
2023-05-21T10:00:29.249Z,22.96
2023-05-21T10:03:01.224Z,22.97
2023-05-21T10:05:31.325Z,22.95
2023-05-21T10:08:04.702Z,22.99
2023-05-21T10:10:33.199Z,23.04
2023-05-21T10:13:06.919Z,23.08
2023-05-21T10:15:42.365Z,23.11
2023-05-21T10:18:12.579Z,23.12
2023-05-21T10:20:42.029Z,23.10
2023-05-21T10:23:10.959Z,23.12
2023-05-21T10:25:40.122Z,23.16
2023-05-21T10:28:08.768Z,23.22
2023-05-21T10:30:38.205Z,23.28
2023-05-21T10:33:08.032Z,23.30
2023-05-21T10:35:37.870Z,23.33
2023-05-21T10:38:08.303Z,23.26
2023-05-21T10:40:37.215Z,23.33
2023-05-21T10:43:36.775Z,23.45
2023-05-21T10:46:29.821Z,23.52
2023-05-21T10:49:35.237Z,23.49
2023-05-21T10:52:35.021Z,23.52
2023-05-21T10:55:06.613Z,23.44
2023-05-21T10:57:54.865Z,23.44
2023-05-21T11:00:25.890Z,23.46
2023-05-21T11:02:54.524Z,23.48
2023-05-21T11:05:57.052Z,23.56
2023-05-21T11:08:26.710Z,23.61
2023-05-21T11:10:59.209Z,23.67
2023-05-21T11:13:31.489Z,23.77
2023-05-21T11:15:59.878Z,23.82
2023-05-21T11:18:33.952Z,23.79
2023-05-21T11:21:10.361Z,23.82
2023-05-21T11:24:02.981Z,23.87
2023-05-21T11:26:55.287Z,23.84
2023-05-21T11:29:33.868Z,23.99
2023-05-21T11:32:06.077Z,23.98
2023-05-21T11:34:49.014Z,23.85
2023-05-21T11:37:30.320Z,23.82
2023-05-21T11:40:16.873Z,23.88
2023-05-21T11:42:50.969Z,23.92
2023-05-21T11:45:21.349Z,23.98
2023-05-21T11:47:51.624Z,24.06
2023-05-21T11:50:20.903Z,24.15
2023-05-21T11:52:50.487Z,24.19
2023-05-21T11:55:25.114Z,24.16
2023-05-21T11:57:55.390Z,24.17
2023-05-21T12:00:23.842Z,24.20
2023-05-21T12:02:53.336Z,24.10
2023-05-21T12:05:22.855Z,24.00
2023-05-21T12:07:51.425Z,23.78
2023-05-21T12:10:24.249Z,23.68
2023-05-21T12:12:56.614Z,23.45
2023-05-21T12:15:27.638Z,23.35
2023-05-21T12:17:57.056Z,23.50
2023-05-21T12:20:29.225Z,23.65
2023-05-21T12:22:58.987Z,23.78
2023-05-21T12:25:28.512Z,23.95
2023-05-21T12:27:58.918Z,24.05
2023-05-21T12:30:28.928Z,24.03
2023-05-21T12:32:59.479Z,23.91
2023-05-21T12:35:27.833Z,23.95
2023-05-21T12:37:56.813Z,24.01
2023-05-21T12:40:37.443Z,24.03
2023-05-21T12:43:06.562Z,24.09
2023-05-21T12:45:36.881Z,24.17
2023-05-21T12:48:05.349Z,24.26
2023-05-21T12:50:34.168Z,24.30
2023-05-21T12:53:02.503Z,24.41
2023-05-21T12:55:31.641Z,24.44
2023-05-21T12:58:09.156Z,24.44
2023-05-21T13:00:38.349Z,24.40
2023-05-21T13:03:07.290Z,24.50
2023-05-21T13:05:36.128Z,24.62
2023-05-21T13:08:04.943Z,24.57
2023-05-21T13:10:33.130Z,24.39
2023-05-21T13:13:02.114Z,24.51
2023-05-21T13:15:30.650Z,24.62
2023-05-21T13:18:01.108Z,24.76
2023-05-21T13:20:30.285Z,24.88
2023-05-21T13:22:58.578Z,24.77
2023-05-21T13:25:32.698Z,24.63
2023-05-21T13:28:03.873Z,24.37
2023-05-21T13:30:33.461Z,24.20
2023-05-21T13:33:01.931Z,24.06
2023-05-21T13:35:34.867Z,23.80
2023-05-21T13:38:02.970Z,23.64
2023-05-21T13:40:31.845Z,23.53
2023-05-21T13:43:00.218Z,23.45
2023-05-21T13:45:29.580Z,23.38
2023-05-21T13:47:58.496Z,23.28
2023-05-21T13:50:26.944Z,23.29
2023-05-21T13:52:55.698Z,23.48
2023-05-21T13:55:23.973Z,23.60
2023-05-21T13:57:52.444Z,23.76
2023-05-21T14:00:20.655Z,23.80
2023-05-21T14:02:50.469Z,23.79
2023-05-21T14:05:19.249Z,23.77
2023-05-21T14:07:48.630Z,23.72
2023-05-21T14:10:17.542Z,23.62
2023-05-21T14:12:46.637Z,23.55
2023-05-21T14:15:15.017Z,23.42
2023-05-21T14:17:43.314Z,23.36
2023-05-21T14:20:12.143Z,23.34
2023-05-21T14:22:40.532Z,23.36
2023-05-21T14:25:09.570Z,23.32
2023-05-21T14:27:38.569Z,23.05
2023-05-21T14:30:08.025Z,22.60
2023-05-21T14:32:36.454Z,22.43
2023-05-21T14:35:05.530Z,22.25
2023-05-21T14:37:33.811Z,22.25
2023-05-21T14:40:02.412Z,22.32
2023-05-21T14:42:30.829Z,22.41
2023-05-21T14:44:59.382Z,22.38
2023-05-21T14:47:27.681Z,22.25
2023-05-21T14:49:55.970Z,22.11
2023-05-21T14:52:24.391Z,22.01
2023-05-21T14:54:52.679Z,21.96
2023-05-21T14:57:21.091Z,21.93
2023-05-21T14:59:49.532Z,21.94
2023-05-21T15:02:17.940Z,22.06
2023-05-21T15:04:46.186Z,22.09
2023-05-21T15:07:14.706Z,22.13
2023-05-21T15:09:43.028Z,22.10
2023-05-21T15:12:11.327Z,22.07
2023-05-21T15:14:40.980Z,22.02
2023-05-21T15:17:09.264Z,21.99
2023-05-21T15:19:37.573Z,22.05
2023-05-21T15:22:06.659Z,22.14
2023-05-21T15:24:34.704Z,22.20
2023-05-21T15:27:03.258Z,22.30
2023-05-21T15:29:31.882Z,22.39
2023-05-21T15:32:01.285Z,22.43
2023-05-21T15:34:29.369Z,22.39
2023-05-21T15:36:58.314Z,22.31
2023-05-21T15:39:27.312Z,22.33
2023-05-21T15:41:55.705Z,22.38
2023-05-21T15:44:25.937Z,22.38
2023-05-21T15:46:55.022Z,22.32
2023-05-21T15:49:23.596Z,22.24
2023-05-21T15:51:52.098Z,22.14
2023-05-21T15:54:20.465Z,22.04
2023-05-21T15:56:50.340Z,21.92
2023-05-21T15:59:18.811Z,21.82
2023-05-21T16:01:47.781Z,21.73
2023-05-21T16:04:17.236Z,21.73
2023-05-21T16:06:45.669Z,21.76
2023-05-21T16:09:14.802Z,21.77
2023-05-21T16:11:44.955Z,21.76
2023-05-21T16:14:13.551Z,21.73
2023-05-21T16:16:41.916Z,21.71
2023-05-21T16:19:10.338Z,21.67
2023-05-21T16:21:38.592Z,21.66
2023-05-21T16:24:06.872Z,21.65
2023-05-21T16:26:35.092Z,21.61
2023-05-21T16:29:03.189Z,21.54
2023-05-21T16:31:31.932Z,21.46
2023-05-21T16:34:00.288Z,21.44
2023-05-21T16:36:28.578Z,21.42
2023-05-21T16:38:56.722Z,21.42
2023-05-21T16:41:25.253Z,21.41
2023-05-21T16:43:54.485Z,21.41
2023-05-21T16:46:22.926Z,21.36
2023-05-21T16:48:51.374Z,21.32
2023-05-21T16:51:19.545Z,21.31
2023-05-21T16:53:47.616Z,21.29
2023-05-21T16:56:16.145Z,21.27
2023-05-21T16:58:44.412Z,21.24
2023-05-21T17:01:13.460Z,21.21
2023-05-21T17:03:43.342Z,21.13
2023-05-21T17:06:12.023Z,21.05
2023-05-21T17:08:42.225Z,20.92
2023-05-21T17:11:10.677Z,20.86
2023-05-21T17:13:39.124Z,20.81
2023-05-21T17:16:07.448Z,20.76
2023-05-21T17:18:35.783Z,20.70
2023-05-21T17:21:04.363Z,20.63
2023-05-21T17:23:32.820Z,20.58
2023-05-21T17:26:01.761Z,20.54
2023-05-21T17:28:29.956Z,20.45
2023-05-21T17:30:58.225Z,20.32
2023-05-21T17:33:26.569Z,20.22
2023-05-21T17:35:57.129Z,20.19
2023-05-21T17:38:25.232Z,20.12
2023-05-21T17:40:53.525Z,19.99
2023-05-21T17:43:21.551Z,19.86
2023-05-21T17:45:49.593Z,19.80
2023-05-21T17:48:18.193Z,19.75
2023-05-21T17:50:46.966Z,19.68
2023-05-21T17:53:16.092Z,19.62
2023-05-21T17:55:44.299Z,19.52
2023-05-21T17:58:12.809Z,19.44
2023-05-21T18:00:41.025Z,19.29
2023-05-21T18:03:09.540Z,19.15
2023-05-21T18:05:38.536Z,19.06
2023-05-21T18:08:09.827Z,18.96
2023-05-21T18:10:38.295Z,18.83
2023-05-21T18:13:06.675Z,18.71
2023-05-21T18:15:35.131Z,18.59
2023-05-21T18:18:03.593Z,18.50
2023-05-21T18:20:32.057Z,18.37
2023-05-21T18:23:00.396Z,18.26
2023-05-21T18:25:28.881Z,18.20
2023-05-21T18:27:57.028Z,18.22
2023-05-21T18:30:25.240Z,18.17
2023-05-21T18:32:53.445Z,18.15
2023-05-21T18:35:22.511Z,18.09
2023-05-21T18:37:50.559Z,17.99
2023-05-21T18:40:21.229Z,17.87
2023-05-21T18:42:49.441Z,17.78
2023-05-21T18:45:17.810Z,17.76
2023-05-21T18:47:46.100Z,17.72
2023-05-21T18:50:15.501Z,17.62
2023-05-21T18:52:43.724Z,17.54
2023-05-21T18:55:12.349Z,17.47
2023-05-21T18:57:40.705Z,17.39
2023-05-21T19:00:09.710Z,17.30
2023-05-21T19:02:38.403Z,17.12
2023-05-21T19:05:07.884Z,16.97
2023-05-21T19:07:36.492Z,16.82
2023-05-21T19:10:05.392Z,16.85
2023-05-21T19:12:36.352Z,16.83
2023-05-21T19:15:06.128Z,16.78
2023-05-21T19:17:36.489Z,16.69
2023-05-21T19:20:06.073Z,16.63
2023-05-21T19:22:35.068Z,16.52
2023-05-21T19:25:04.401Z,16.49
2023-05-21T19:27:32.667Z,16.49
2023-05-21T19:30:01.216Z,16.46
2023-05-21T19:32:29.715Z,16.39
2023-05-21T19:34:58.600Z,16.30
2023-05-21T19:37:26.859Z,16.18
2023-05-21T19:39:54.872Z,16.10
2023-05-21T19:42:23.744Z,16.02
2023-05-21T19:44:52.126Z,16.00
2023-05-21T19:47:20.519Z,15.99
2023-05-21T19:49:49.015Z,15.98
2023-05-21T19:52:17.495Z,15.96
2023-05-21T19:54:45.789Z,15.93
2023-05-21T19:57:14.151Z,15.85
2023-05-21T19:59:42.504Z,15.76
2023-05-21T20:02:17.106Z,15.69
2023-05-21T20:04:45.440Z,15.64
2023-05-21T20:07:13.794Z,15.62
2023-05-21T20:09:42.380Z,15.60
2023-05-21T20:12:10.988Z,15.60
2023-05-21T20:14:39.459Z,15.57
2023-05-21T20:17:07.914Z,15.53
2023-05-21T20:19:37.850Z,15.49
2023-05-21T20:22:06.348Z,15.44
2023-05-21T20:24:34.918Z,15.41
2023-05-21T20:27:03.406Z,15.39
2023-05-21T20:29:32.123Z,15.35
2023-05-21T20:32:00.384Z,15.29
2023-05-21T20:34:29.820Z,15.18
2023-05-21T20:36:58.493Z,15.18
2023-05-21T20:39:31.152Z,15.20
2023-05-21T20:42:01.078Z,15.16
2023-05-21T20:44:29.734Z,15.10
2023-05-21T20:46:58.267Z,15.06
2023-05-21T20:49:28.348Z,15.02
2023-05-21T20:51:56.389Z,15.00
2023-05-21T20:54:24.924Z,14.95
2023-05-21T20:56:55.197Z,14.90
2023-05-21T20:59:23.599Z,14.89
2023-05-21T21:01:52.813Z,14.80
2023-05-21T21:04:22.123Z,14.79
2023-05-21T21:06:50.352Z,14.80
2023-05-21T21:09:19.273Z,14.84
2023-05-21T21:11:47.598Z,14.74
2023-05-21T21:14:15.750Z,14.76
2023-05-21T21:16:44.122Z,14.81
2023-05-21T21:19:12.569Z,14.82
2023-05-21T21:21:41.185Z,14.84
2023-05-21T21:24:09.562Z,14.78
2023-05-21T21:26:37.963Z,14.73
2023-05-21T21:29:06.167Z,14.72
2023-05-21T21:31:34.701Z,14.67
2023-05-21T21:34:03.217Z,14.55
2023-05-21T21:36:31.808Z,14.52
2023-05-21T21:39:00.276Z,14.45
2023-05-21T21:41:29.583Z,14.42
2023-05-21T21:43:58.563Z,14.41
2023-05-21T21:46:26.846Z,14.39
2023-05-21T21:48:55.418Z,14.25
2023-05-21T21:51:23.816Z,14.09
2023-05-21T21:53:52.075Z,14.01
2023-05-21T21:56:20.137Z,13.96
2023-05-21T21:58:48.435Z,13.93
2023-05-21T22:01:16.734Z,13.88
2023-05-21T22:03:44.964Z,13.84
2023-05-21T22:06:13.304Z,13.84
2023-05-21T22:08:41.557Z,13.80
2023-05-21T22:11:10.418Z,13.77
2023-05-21T22:13:38.639Z,13.77
2023-05-21T22:16:07.822Z,13.75
2023-05-21T22:18:40.288Z,13.70
2023-05-21T22:21:10.989Z,13.75
2023-05-21T22:23:40.176Z,13.66
2023-05-21T22:26:09.460Z,13.70
2023-05-21T22:28:37.735Z,13.60
2023-05-21T22:31:06.237Z,13.59
2023-05-21T22:33:34.876Z,13.49
2023-05-21T22:36:03.382Z,13.45
2023-05-21T22:38:31.769Z,13.43
2023-05-21T22:40:59.909Z,13.34
2023-05-21T22:43:28.292Z,13.29
2023-05-21T22:45:56.773Z,13.27
2023-05-21T22:48:25.179Z,13.24
2023-05-21T22:50:53.679Z,13.31
2023-05-21T22:53:22.370Z,13.31
2023-05-21T22:55:51.242Z,13.28
2023-05-21T22:58:19.609Z,13.25
2023-05-21T23:00:48.408Z,13.21
2023-05-21T23:03:16.942Z,13.22
2023-05-21T23:05:46.009Z,13.23
2023-05-21T23:08:14.759Z,13.23
2023-05-21T23:10:42.971Z,13.24
2023-05-21T23:13:12.967Z,13.24
2023-05-21T23:15:43.963Z,13.23
2023-05-21T23:18:12.750Z,13.15
2023-05-21T23:20:41.792Z,13.08
2023-05-21T23:23:11.138Z,12.96
2023-05-21T23:25:39.427Z,12.85
2023-05-21T23:28:07.472Z,12.76
2023-05-21T23:30:35.683Z,12.81
2023-05-21T23:33:04.052Z,12.91
2023-05-21T23:35:32.481Z,12.97
2023-05-21T23:38:00.975Z,13.00
2023-05-21T23:40:29.444Z,12.93
2023-05-21T23:42:58.249Z,12.92
2023-05-21T23:45:26.432Z,12.88
2023-05-21T23:47:54.909Z,12.86
2023-05-21T23:50:24.799Z,12.88
2023-05-21T23:52:53.500Z,12.90
2023-05-21T23:55:21.551Z,12.89
2023-05-21T23:57:49.935Z,12.83
